TimeEDT,TemperatureF,Dew PointF,Humidity,Sea Level PressureIn,VisibilityMPH,Wind Direction,Wind SpeedMPH,Gust SpeedMPH,PrecipitationIn,Events,Conditions,WindDirDegrees,DateUTC
12:15 AM,38.3,36.0,91,29.77,7.0,WSW,9.2,16.1,N/A,,Light Drizzle,250,2012-11-01 04:15:00
12:35 AM,38.3,36.0,91,29.77,10.0,WSW,10.4,16.1,N/A,,Unknown,250,2012-11-01 04:35:00
12:55 AM,38.3,35.8,91,29.77,10.0,WSW,10.4,-,N/A,,Unknown,250,2012-11-01 04:55:00
1:15 AM,38.1,35.6,91,29.77,10.0,WSW,11.5,17.3,N/A,,Light Drizzle,240,2012-11-01 05:15:00
1:35 AM,38.1,35.6,91,29.77,10.0,WSW,9.2,-,N/A,,Light Drizzle,240,2012-11-01 05:35:00
1:55 AM,37.9,35.6,91,29.77,10.0,WSW,8.1,-,N/A,Rain,Light Rain,240,2012-11-01 05:55:00
2:15 AM,38.1,35.6,91,29.77,7.0,WSW,9.2,-,N/A,,Unknown,240,2012-11-01 06:15:00
2:35 AM,37.9,35.6,91,29.77,10.0,WSW,9.2,-,N/A,,Light Drizzle,240,2012-11-01 06:35:00
2:55 AM,38.1,35.6,91,29.77,10.0,WSW,10.4,-,N/A,,Light Drizzle,250,2012-11-01 06:55:00
3:15 AM,37.9,35.6,91,29.77,10.0,WSW,8.1,-,N/A,Rain,Light Rain,240,2012-11-01 07:15:00
3:35 AM,38.1,35.8,91,29.77,7.0,WSW,6.9,-,N/A,,Light Drizzle,250,2012-11-01 07:35:00
3:55 AM,38.1,35.8,91,29.77,7.0,WSW,8.1,-,N/A,Rain,Rain,240,2012-11-01 07:55:00
4:15 AM,38.1,36.0,92,29.76,7.0,WSW,6.9,-,N/A,,Light Drizzle,240,2012-11-01 08:15:00
4:35 AM,37.9,36.0,93,29.76,7.0,WSW,9.2,-,N/A,Rain,Light Rain,250,2012-11-01 08:35:00
4:55 AM,38.1,36.3,93,29.76,7.0,WSW,8.1,-,N/A,,Unknown,240,2012-11-01 08:55:00
5:15 AM,38.3,36.5,93,29.77,5.0,WSW,8.1,-,N/A,,Light Drizzle,240,2012-11-01 09:15:00
5:35 AM,38.3,36.3,93,29.77,7.0,WSW,6.9,-,N/A,Rain,Light Rain,250,2012-11-01 09:35:00
5:55 AM,38.3,36.5,93,29.77,10.0,WSW,6.9,-,N/A,,Unknown,250,2012-11-01 09:55:00
6:15 AM,38.5,36.5,93,29.77,7.0,WSW,9.2,-,N/A,,Unknown,250,2012-11-01 10:15:00
6:35 AM,38.3,36.5,93,29.77,7.0,WSW,8.1,-,N/A,,Unknown,240,2012-11-01 10:35:00
6:55 AM,38.5,36.5,93,29.78,7.0,WSW,9.2,-,N/A,Rain,Light Rain,240,2012-11-01 10:55:00
7:15 AM,38.3,36.5,93,29.78,5.0,WSW,10.4,-,N/A,,Light Drizzle,240,2012-11-01 11:15:00
7:35 AM,38.5,36.5,93,29.79,7.0,WSW,8.1,-,N/A,,Unknown,250,2012-11-01 11:35:00
7:55 AM,38.3,36.5,93,29.79,7.0,WSW,5.8,-,N/A,,Unknown,240,2012-11-01 11:55:00
8:15 AM,38.3,36.5,93,29.79,5.0,SW,6.9,-,N/A,,Light Drizzle,230,2012-11-01 12:15:00
8:35 AM,38.3,36.5,93,29.80,7.0,WSW,6.9,-,N/A,Rain,Light Rain,240,2012-11-01 12:35:00
8:55 AM,38.5,36.7,93,29.81,7.0,WSW,6.9,-,N/A,,Light Drizzle,240,2012-11-01 12:55:00
9:15 AM,38.7,36.9,93,29.81,7.0,SW,6.9,-,N/A,Rain,Light Rain,230,2012-11-01 13:15:00
9:35 AM,39.2,36.9,91,29.81,7.0,WSW,6.9,-,N/A,,Unknown,250,2012-11-01 13:35:00
9:55 AM,39.9,36.9,89,29.81,10.0,WSW,8.1,-,N/A,,Unknown,240,2012-11-01 13:55:00
10:15 AM,40.3,37.0,88,29.81,10.0,WSW,8.1,-,N/A,,Unknown,240,2012-11-01 14:15:00
10:35 AM,41.0,37.6,88,29.82,10.0,WSW,9.2,-,N/A,,Unknown,250,2012-11-01 14:35:00
10:55 AM,41.9,37.6,85,29.82,10.0,WSW,12.7,16.1,N/A,,Unknown,240,2012-11-01 14:55:00
11:15 AM,42.8,37.6,82,29.81,10.0,WSW,11.5,-,N/A,,Unknown,240,2012-11-01 15:15:00
11:35 AM,44.8,37.8,76,29.81,10.0,WSW,11.5,17.3,N/A,,Unknown,250,2012-11-01 15:35:00
11:55 AM,44.1,36.5,75,29.81,10.0,West,9.2,-,N/A,,Unknown,280,2012-11-01 15:55:00
12:15 PM,45.7,36.9,71,29.81,10.0,West,13.8,17.3,N/A,,Unknown,260,2012-11-01 16:15:00
12:35 PM,47.8,36.7,65,29.80,10.0,WSW,12.7,18.4,N/A,,Unknown,250,2012-11-01 16:35:00
12:55 PM,47.8,34.5,60,29.80,10.0,West,15.0,25.3,N/A,,Unknown,280,2012-11-01 16:55:00
1:15 PM,46.6,32.4,58,29.79,10.0,West,15.0,19.6,N/A,,Unknown,270,2012-11-01 17:15:00
1:55 PM,49.8,30.7,48,29.77,10.0,West,17.3,25.3,N/A,,Unknown,260,2012-11-01 17:55:00
2:15 PM,50.2,29.8,46,29.77,10.0,West,16.1,21.9,N/A,,Unknown,260,2012-11-01 18:15:00
2:35 PM,50.7,28.6,42,29.77,10.0,West,17.3,21.9,N/A,,Unknown,280,2012-11-01 18:35:00
2:55 PM,50.9,28.4,42,29.76,10.0,WSW,15.0,19.6,N/A,,Unknown,250,2012-11-01 18:55:00
3:15 PM,52.0,28.8,41,29.76,10.0,WNW,16.1,20.7,N/A,,Unknown,290,2012-11-01 19:15:00
3:35 PM,51.3,25.5,37,29.76,10.0,West,13.8,19.6,N/A,,Unknown,280,2012-11-01 19:35:00
3:55 PM,52.0,24.4,34,29.76,10.0,West,15.0,20.7,N/A,,Unknown,260,2012-11-01 19:55:00
4:15 PM,51.6,22.6,32,29.76,10.0,West,16.1,24.2,N/A,,Unknown,280,2012-11-01 20:15:00
4:55 PM,51.8,22.8,32,29.77,10.0,West,17.3,23.0,N/A,,Unknown,280,2012-11-01 20:55:00
5:15 PM,51.1,21.2,31,29.77,10.0,West,16.1,-,N/A,,Unknown,280,2012-11-01 21:15:00
5:55 PM,48.4,22.1,36,29.78,10.0,West,11.5,-,N/A,,Unknown,280,2012-11-01 21:55:00
6:15 PM,47.7,22.5,37,29.79,10.0,West,9.2,-,N/A,,Unknown,280,2012-11-01 22:15:00
6:35 PM,46.9,25.0,42,29.79,10.0,WSW,4.6,-,N/A,,Unknown,250,2012-11-01 22:35:00
6:55 PM,47.3,22.5,38,29.79,10.0,West,8.1,-,N/A,,Unknown,260,2012-11-01 22:55:00
7:15 PM,47.1,22.6,38,29.79,10.0,West,8.1,-,N/A,,Unknown,260,2012-11-01 23:15:00
7:35 PM,46.0,22.8,40,29.81,10.0,West,8.1,-,N/A,,Unknown,260,2012-11-01 23:35:00
7:55 PM,44.8,21.9,40,29.81,10.0,WSW,8.1,-,N/A,,Unknown,250,2012-11-01 23:55:00
8:15 PM,43.7,22.3,43,29.82,10.0,West,6.9,-,N/A,,Unknown,260,2012-11-02 00:15:00
8:35 PM,44.8,23.4,43,29.82,10.0,West,6.9,-,N/A,,Unknown,260,2012-11-02 00:35:00
8:55 PM,45.7,23.7,42,29.82,10.0,West,8.1,-,N/A,,Unknown,260,2012-11-02 00:55:00
9:15 PM,46.0,23.2,41,29.82,10.0,West,8.1,-,N/A,,Unknown,260,2012-11-02 01:15:00
9:35 PM,46.4,23.2,40,29.82,10.0,WSW,9.2,-,N/A,,Unknown,250,2012-11-02 01:35:00
9:55 PM,45.5,24.4,44,29.82,10.0,West,6.9,-,N/A,,Unknown,260,2012-11-02 01:55:00
10:15 PM,42.6,24.8,49,29.83,10.0,WSW,4.6,-,N/A,,Unknown,250,2012-11-02 02:15:00
10:35 PM,43.3,23.9,46,29.84,10.0,WSW,5.8,-,N/A,,Unknown,250,2012-11-02 02:35:00
10:55 PM,43.0,25.5,50,29.83,10.0,WSW,4.6,-,N/A,,Unknown,250,2012-11-02 02:55:00
11:15 PM,42.8,26.6,53,29.83,10.0,West,4.6,-,N/A,,Unknown,260,2012-11-02 03:15:00
11:35 PM,43.0,25.7,51,29.83,10.0,WSW,4.6,-,N/A,,Unknown,250,2012-11-02 03:35:00
11:55 PM,43.0,26.2,52,29.82,10.0,WSW,4.6,-,N/A,,Unknown,240,2012-11-02 03:55:00